sensor_id;sensor_type;location;lat;lon;timestamp;P1;durP1;ratioP1;P2;durP2;ratioP2
20695;SDS011;10507;52.754;13.040;2024-01-07T00:01:12;6.90;;;4.03;;
20695;SDS011;10507;52.754;13.040;2024-01-07T00:03:40;6.47;;;3.73;;
20695;SDS011;10507;52.754;13.040;2024-01-07T00:06:08;8.10;;;3.70;;
20695;SDS011;10507;52.754;13.040;2024-01-07T00:08:36;5.13;;;3.20;;
20695;SDS011;10507;52.754;13.040;2024-01-07T00:11:03;4.67;;;3.00;;
20695;SDS011;10507;52.754;13.040;2024-01-07T00:13:29;3.13;;;2.43;;
20695;SDS011;10507;52.754;13.040;2024-01-07T00:15:56;5.40;;;3.17;;
20695;SDS011;10507;52.754;13.040;2024-01-07T00:18:23;6.23;;;3.20;;
20695;SDS011;10507;52.754;13.040;2024-01-07T00:20:50;6.43;;;3.67;;
20695;SDS011;10507;52.754;13.040;2024-01-07T00:23:17;6.10;;;3.30;;
20695;SDS011;10507;52.754;13.040;2024-01-07T00:25:45;4.17;;;3.47;;
20695;SDS011;10507;52.754;13.040;2024-01-07T00:28:12;6.10;;;3.60;;
20695;SDS011;10507;52.754;13.040;2024-01-07T00:30:38;4.50;;;3.23;;
20695;SDS011;10507;52.754;13.040;2024-01-07T00:33:05;5.23;;;3.10;;
20695;SDS011;10507;52.754;13.040;2024-01-07T00:35:32;5.17;;;3.80;;
20695;SDS011;10507;52.754;13.040;2024-01-07T00:37:58;6.17;;;4.10;;
20695;SDS011;10507;52.754;13.040;2024-01-07T00:40:26;5.87;;;4.27;;
20695;SDS011;10507;52.754;13.040;2024-01-07T00:42:53;5.60;;;3.87;;
20695;SDS011;10507;52.754;13.040;2024-01-07T00:45:20;7.03;;;3.90;;
20695;SDS011;10507;52.754;13.040;2024-01-07T00:47:46;5.80;;;3.53;;
20695;SDS011;10507;52.754;13.040;2024-01-07T00:50:13;8.33;;;4.40;;
20695;SDS011;10507;52.754;13.040;2024-01-07T00:52:40;4.63;;;3.40;;
20695;SDS011;10507;52.754;13.040;2024-01-07T00:55:08;7.13;;;3.50;;
20695;SDS011;10507;52.754;13.040;2024-01-07T00:57:36;4.60;;;3.60;;
20695;SDS011;10507;52.754;13.040;2024-01-07T01:00:04;6.77;;;3.37;;
20695;SDS011;10507;52.754;13.040;2024-01-07T01:02:32;6.63;;;3.77;;
20695;SDS011;10507;52.754;13.040;2024-01-07T01:04:58;7.03;;;3.90;;
20695;SDS011;10507;52.754;13.040;2024-01-07T01:07:25;4.97;;;3.43;;
20695;SDS011;10507;52.754;13.040;2024-01-07T01:09:52;7.00;;;3.80;;
20695;SDS011;10507;52.754;13.040;2024-01-07T01:12:18;4.10;;;3.47;;
20695;SDS011;10507;52.754;13.040;2024-01-07T01:14:46;5.70;;;3.43;;
20695;SDS011;10507;52.754;13.040;2024-01-07T01:17:13;7.57;;;3.93;;
20695;SDS011;10507;52.754;13.040;2024-01-07T01:19:40;4.97;;;3.77;;
20695;SDS011;10507;52.754;13.040;2024-01-07T01:22:06;7.13;;;3.73;;
20695;SDS011;10507;52.754;13.040;2024-01-07T01:24:33;4.93;;;3.47;;
20695;SDS011;10507;52.754;13.040;2024-01-07T01:27:00;5.67;;;4.20;;
20695;SDS011;10507;52.754;13.040;2024-01-07T01:29:26;6.67;;;4.10;;
20695;SDS011;10507;52.754;13.040;2024-01-07T01:31:54;5.33;;;3.70;;
20695;SDS011;10507;52.754;13.040;2024-01-07T01:34:22;6.53;;;3.70;;
20695;SDS011;10507;52.754;13.040;2024-01-07T01:36:49;7.67;;;3.83;;
20695;SDS011;10507;52.754;13.040;2024-01-07T01:39:16;6.87;;;4.10;;
20695;SDS011;10507;52.754;13.040;2024-01-07T01:41:43;6.97;;;4.10;;
20695;SDS011;10507;52.754;13.040;2024-01-07T01:44:10;4.93;;;3.57;;
20695;SDS011;10507;52.754;13.040;2024-01-07T01:46:36;7.00;;;4.43;;
20695;SDS011;10507;52.754;13.040;2024-01-07T01:49:05;7.17;;;4.30;;
20695;SDS011;10507;52.754;13.040;2024-01-07T01:51:33;6.93;;;4.17;;
20695;SDS011;10507;52.754;13.040;2024-01-07T01:54:00;7.40;;;4.33;;
20695;SDS011;10507;52.754;13.040;2024-01-07T01:56:27;5.03;;;3.50;;
20695;SDS011;10507;52.754;13.040;2024-01-07T01:58:55;7.87;;;4.10;;
20695;SDS011;10507;52.754;13.040;2024-01-07T02:01:22;5.57;;;4.23;;
20695;SDS011;10507;52.754;13.040;2024-01-07T02:03:49;5.63;;;3.93;;
20695;SDS011;10507;52.754;13.040;2024-01-07T02:06:18;6.30;;;4.27;;
20695;SDS011;10507;52.754;13.040;2024-01-07T02:08:46;5.70;;;3.70;;
20695;SDS011;10507;52.754;13.040;2024-01-07T02:11:15;7.80;;;3.97;;
20695;SDS011;10507;52.754;13.040;2024-01-07T02:13:42;6.83;;;4.57;;
20695;SDS011;10507;52.754;13.040;2024-01-07T02:16:09;6.93;;;4.17;;
20695;SDS011;10507;52.754;13.040;2024-01-07T02:18:36;6.07;;;3.90;;
20695;SDS011;10507;52.754;13.040;2024-01-07T02:21:03;5.47;;;4.20;;
20695;SDS011;10507;52.754;13.040;2024-01-07T02:23:31;7.33;;;4.17;;
20695;SDS011;10507;52.754;13.040;2024-01-07T02:25:59;7.13;;;4.33;;
20695;SDS011;10507;52.754;13.040;2024-01-07T02:28:26;6.27;;;4.00;;
20695;SDS011;10507;52.754;13.040;2024-01-07T02:30:53;4.43;;;3.93;;
20695;SDS011;10507;52.754;13.040;2024-01-07T02:33:19;6.70;;;4.10;;
20695;SDS011;10507;52.754;13.040;2024-01-07T02:35:46;6.53;;;4.03;;
20695;SDS011;10507;52.754;13.040;2024-01-07T02:38:13;5.07;;;3.93;;
20695;SDS011;10507;52.754;13.040;2024-01-07T02:40:40;6.00;;;3.63;;
20695;SDS011;10507;52.754;13.040;2024-01-07T02:43:08;8.57;;;4.60;;
20695;SDS011;10507;52.754;13.040;2024-01-07T02:45:34;5.70;;;4.13;;
20695;SDS011;10507;52.754;13.040;2024-01-07T02:48:01;6.17;;;4.43;;
20695;SDS011;10507;52.754;13.040;2024-01-07T02:50:28;7.90;;;4.50;;
20695;SDS011;10507;52.754;13.040;2024-01-07T02:52:55;8.30;;;4.70;;
20695;SDS011;10507;52.754;13.040;2024-01-07T02:55:21;6.50;;;4.33;;
20695;SDS011;10507;52.754;13.040;2024-01-07T02:57:48;10.37;;;4.70;;
20695;SDS011;10507;52.754;13.040;2024-01-07T03:00:16;7.03;;;4.57;;
20695;SDS011;10507;52.754;13.040;2024-01-07T03:02:43;6.27;;;4.00;;
20695;SDS011;10507;52.754;13.040;2024-01-07T03:05:10;11.03;;;4.70;;
20695;SDS011;10507;52.754;13.040;2024-01-07T03:07:37;6.77;;;4.10;;
20695;SDS011;10507;52.754;13.040;2024-01-07T03:10:05;6.53;;;4.93;;
20695;SDS011;10507;52.754;13.040;2024-01-07T03:12:32;8.67;;;4.40;;
20695;SDS011;10507;52.754;13.040;2024-01-07T03:14:59;6.97;;;4.10;;
20695;SDS011;10507;52.754;13.040;2024-01-07T03:17:27;5.83;;;4.60;;
20695;SDS011;10507;52.754;13.040;2024-01-07T03:19:53;5.73;;;4.23;;
20695;SDS011;10507;52.754;13.040;2024-01-07T03:22:20;5.90;;;4.33;;
20695;SDS011;10507;52.754;13.040;2024-01-07T03:24:47;7.37;;;4.27;;
20695;SDS011;10507;52.754;13.040;2024-01-07T03:27:13;7.57;;;4.47;;
20695;SDS011;10507;52.754;13.040;2024-01-07T03:29:40;7.77;;;4.30;;
20695;SDS011;10507;52.754;13.040;2024-01-07T03:32:07;5.73;;;4.50;;
20695;SDS011;10507;52.754;13.040;2024-01-07T03:34:36;7.27;;;4.40;;
20695;SDS011;10507;52.754;13.040;2024-01-07T03:37:04;6.93;;;4.40;;
20695;SDS011;10507;52.754;13.040;2024-01-07T03:39:31;7.03;;;4.60;;
20695;SDS011;10507;52.754;13.040;2024-01-07T03:41:58;5.17;;;4.33;;
20695;SDS011;10507;52.754;13.040;2024-01-07T03:44:25;10.03;;;4.93;;
20695;SDS011;10507;52.754;13.040;2024-01-07T03:46:52;6.73;;;4.17;;
20695;SDS011;10507;52.754;13.040;2024-01-07T03:49:18;7.00;;;4.30;;
20695;SDS011;10507;52.754;13.040;2024-01-07T03:51:46;8.00;;;4.63;;
20695;SDS011;10507;52.754;13.040;2024-01-07T03:54:13;7.63;;;4.50;;
20695;SDS011;10507;52.754;13.040;2024-01-07T03:56:40;6.70;;;4.50;;
20695;SDS011;10507;52.754;13.040;2024-01-07T03:59:06;6.83;;;4.23;;
20695;SDS011;10507;52.754;13.040;2024-01-07T04:01:33;6.63;;;4.30;;
20695;SDS011;10507;52.754;13.040;2024-01-07T04:04:00;6.17;;;4.17;;
20695;SDS011;10507;52.754;13.040;2024-01-07T04:06:26;6.23;;;4.40;;
20695;SDS011;10507;52.754;13.040;2024-01-07T04:08:55;6.97;;;4.40;;
20695;SDS011;10507;52.754;13.040;2024-01-07T04:11:21;7.67;;;4.70;;
20695;SDS011;10507;52.754;13.040;2024-01-07T04:13:48;6.93;;;4.83;;
20695;SDS011;10507;52.754;13.040;2024-01-07T04:16:17;5.70;;;4.17;;
20695;SDS011;10507;52.754;13.040;2024-01-07T04:18:44;8.60;;;4.57;;
20695;SDS011;10507;52.754;13.040;2024-01-07T04:21:11;6.53;;;4.60;;
20695;SDS011;10507;52.754;13.040;2024-01-07T04:23:38;6.93;;;4.70;;
20695;SDS011;10507;52.754;13.040;2024-01-07T04:26:06;6.43;;;4.00;;
20695;SDS011;10507;52.754;13.040;2024-01-07T04:28:33;6.23;;;4.30;;
20695;SDS011;10507;52.754;13.040;2024-01-07T04:30:59;5.40;;;4.27;;
20695;SDS011;10507;52.754;13.040;2024-01-07T04:33:26;7.27;;;4.30;;
20695;SDS011;10507;52.754;13.040;2024-01-07T04:35:53;6.83;;;4.20;;
20695;SDS011;10507;52.754;13.040;2024-01-07T04:38:22;5.50;;;3.93;;
20695;SDS011;10507;52.754;13.040;2024-01-07T04:40:49;7.50;;;4.57;;
20695;SDS011;10507;52.754;13.040;2024-01-07T04:43:17;5.77;;;4.33;;
20695;SDS011;10507;52.754;13.040;2024-01-07T04:45:44;5.50;;;4.40;;
20695;SDS011;10507;52.754;13.040;2024-01-07T04:48:10;7.90;;;4.80;;
20695;SDS011;10507;52.754;13.040;2024-01-07T04:50:38;7.20;;;4.47;;
20695;SDS011;10507;52.754;13.040;2024-01-07T04:53:05;6.57;;;4.20;;
20695;SDS011;10507;52.754;13.040;2024-01-07T04:55:32;6.43;;;4.20;;
20695;SDS011;10507;52.754;13.040;2024-01-07T04:57:59;7.53;;;4.73;;
20695;SDS011;10507;52.754;13.040;2024-01-07T05:00:27;7.70;;;4.27;;
20695;SDS011;10507;52.754;13.040;2024-01-07T05:02:54;6.50;;;3.93;;
20695;SDS011;10507;52.754;13.040;2024-01-07T05:05:21;6.67;;;4.00;;
20695;SDS011;10507;52.754;13.040;2024-01-07T05:07:47;8.60;;;4.77;;
20695;SDS011;10507;52.754;13.040;2024-01-07T05:10:14;7.83;;;4.33;;
20695;SDS011;10507;52.754;13.040;2024-01-07T05:12:41;6.00;;;4.40;;
20695;SDS011;10507;52.754;13.040;2024-01-07T05:15:08;7.13;;;4.43;;
20695;SDS011;10507;52.754;13.040;2024-01-07T05:17:36;7.00;;;4.73;;
20695;SDS011;10507;52.754;13.040;2024-01-07T05:20:03;7.07;;;4.70;;
20695;SDS011;10507;52.754;13.040;2024-01-07T05:22:31;6.00;;;3.73;;
20695;SDS011;10507;52.754;13.040;2024-01-07T05:24:58;7.53;;;4.37;;
20695;SDS011;10507;52.754;13.040;2024-01-07T05:27:24;6.73;;;3.93;;
20695;SDS011;10507;52.754;13.040;2024-01-07T05:29:51;5.40;;;3.97;;
20695;SDS011;10507;52.754;13.040;2024-01-07T05:32:20;8.07;;;4.33;;
20695;SDS011;10507;52.754;13.040;2024-01-07T05:34:48;9.00;;;4.63;;
20695;SDS011;10507;52.754;13.040;2024-01-07T05:37:15;9.37;;;4.43;;
20695;SDS011;10507;52.754;13.040;2024-01-07T05:39:42;7.40;;;4.60;;
20695;SDS011;10507;52.754;13.040;2024-01-07T05:42:09;7.00;;;4.20;;
20695;SDS011;10507;52.754;13.040;2024-01-07T05:44:35;8.70;;;4.97;;
20695;SDS011;10507;52.754;13.040;2024-01-07T05:47:02;10.73;;;4.67;;
20695;SDS011;10507;52.754;13.040;2024-01-07T05:49:29;6.97;;;4.43;;
20695;SDS011;10507;52.754;13.040;2024-01-07T05:51:57;6.67;;;4.40;;
20695;SDS011;10507;52.754;13.040;2024-01-07T05:54:24;8.67;;;4.30;;
20695;SDS011;10507;52.754;13.040;2024-01-07T05:56:51;6.63;;;4.50;;
20695;SDS011;10507;52.754;13.040;2024-01-07T05:59:17;5.87;;;4.00;;
20695;SDS011;10507;52.754;13.040;2024-01-07T06:01:44;6.57;;;4.07;;
20695;SDS011;10507;52.754;13.040;2024-01-07T06:04:11;6.73;;;4.07;;
20695;SDS011;10507;52.754;13.040;2024-01-07T06:06:37;7.80;;;4.67;;
20695;SDS011;10507;52.754;13.040;2024-01-07T06:09:05;7.23;;;5.47;;
20695;SDS011;10507;52.754;13.040;2024-01-07T06:11:32;7.27;;;4.53;;
20695;SDS011;10507;52.754;13.040;2024-01-07T06:13:59;6.03;;;4.13;;
20695;SDS011;10507;52.754;13.040;2024-01-07T06:16:26;7.90;;;4.47;;
20695;SDS011;10507;52.754;13.040;2024-01-07T06:18:52;7.97;;;4.93;;
20695;SDS011;10507;52.754;13.040;2024-01-07T06:21:19;6.77;;;4.33;;
20695;SDS011;10507;52.754;13.040;2024-01-07T06:23:45;7.07;;;4.43;;
20695;SDS011;10507;52.754;13.040;2024-01-07T06:26:13;7.00;;;4.23;;
20695;SDS011;10507;52.754;13.040;2024-01-07T06:28:41;8.23;;;4.80;;
20695;SDS011;10507;52.754;13.040;2024-01-07T06:31:07;7.10;;;5.10;;
20695;SDS011;10507;52.754;13.040;2024-01-07T06:33:34;9.10;;;4.93;;
20695;SDS011;10507;52.754;13.040;2024-01-07T06:36:01;7.30;;;4.40;;
20695;SDS011;10507;52.754;13.040;2024-01-07T06:38:28;7.57;;;4.57;;
20695;SDS011;10507;52.754;13.040;2024-01-07T06:40:54;8.33;;;4.57;;
20695;SDS011;10507;52.754;13.040;2024-01-07T06:43:27;7.07;;;4.90;;
20695;SDS011;10507;52.754;13.040;2024-01-07T06:45:53;7.77;;;4.37;;
20695;SDS011;10507;52.754;13.040;2024-01-07T06:48:20;7.43;;;4.40;;
20695;SDS011;10507;52.754;13.040;2024-01-07T06:50:47;8.17;;;5.33;;
20695;SDS011;10507;52.754;13.040;2024-01-07T06:53:13;8.67;;;5.03;;
20695;SDS011;10507;52.754;13.040;2024-01-07T06:55:41;8.37;;;4.53;;
20695;SDS011;10507;52.754;13.040;2024-01-07T06:58:08;7.00;;;4.73;;
20695;SDS011;10507;52.754;13.040;2024-01-07T07:00:36;6.73;;;4.53;;
20695;SDS011;10507;52.754;13.040;2024-01-07T07:03:02;6.03;;;5.07;;
20695;SDS011;10507;52.754;13.040;2024-01-07T07:05:30;7.10;;;4.60;;
20695;SDS011;10507;52.754;13.040;2024-01-07T07:07:57;8.07;;;5.03;;
20695;SDS011;10507;52.754;13.040;2024-01-07T07:10:23;6.73;;;4.33;;
20695;SDS011;10507;52.754;13.040;2024-01-07T07:12:50;7.27;;;4.80;;
20695;SDS011;10507;52.754;13.040;2024-01-07T07:15:17;9.83;;;4.50;;
20695;SDS011;10507;52.754;13.040;2024-01-07T07:17:45;7.37;;;4.30;;
20695;SDS011;10507;52.754;13.040;2024-01-07T07:20:12;8.10;;;4.97;;
20695;SDS011;10507;52.754;13.040;2024-01-07T07:22:39;11.90;;;5.20;;
20695;SDS011;10507;52.754;13.040;2024-01-07T07:25:06;8.90;;;5.40;;
20695;SDS011;10507;52.754;13.040;2024-01-07T07:27:33;7.73;;;4.50;;
20695;SDS011;10507;52.754;13.040;2024-01-07T07:29:59;7.17;;;4.53;;
20695;SDS011;10507;52.754;13.040;2024-01-07T07:32:26;8.10;;;5.07;;
20695;SDS011;10507;52.754;13.040;2024-01-07T07:34:54;6.73;;;4.40;;
20695;SDS011;10507;52.754;13.040;2024-01-07T07:37:21;6.57;;;4.50;;
20695;SDS011;10507;52.754;13.040;2024-01-07T07:39:50;6.50;;;4.47;;
20695;SDS011;10507;52.754;13.040;2024-01-07T07:42:16;8.63;;;4.97;;
20695;SDS011;10507;52.754;13.040;2024-01-07T07:44:43;7.90;;;4.87;;
20695;SDS011;10507;52.754;13.040;2024-01-07T07:47:10;7.37;;;4.60;;
20695;SDS011;10507;52.754;13.040;2024-01-07T07:49:37;7.17;;;4.63;;
20695;SDS011;10507;52.754;13.040;2024-01-07T07:52:06;6.53;;;4.60;;
20695;SDS011;10507;52.754;13.040;2024-01-07T07:54:34;9.00;;;4.83;;
20695;SDS011;10507;52.754;13.040;2024-01-07T07:57:00;8.73;;;4.93;;
20695;SDS011;10507;52.754;13.040;2024-01-07T07:59:27;7.03;;;4.83;;
20695;SDS011;10507;52.754;13.040;2024-01-07T08:01:54;8.40;;;4.97;;
20695;SDS011;10507;52.754;13.040;2024-01-07T08:04:21;9.80;;;4.80;;
20695;SDS011;10507;52.754;13.040;2024-01-07T08:06:47;9.30;;;4.63;;
20695;SDS011;10507;52.754;13.040;2024-01-07T08:09:15;7.87;;;5.33;;
20695;SDS011;10507;52.754;13.040;2024-01-07T08:11:42;7.07;;;5.00;;
20695;SDS011;10507;52.754;13.040;2024-01-07T08:14:09;7.27;;;4.33;;
20695;SDS011;10507;52.754;13.040;2024-01-07T08:16:35;6.13;;;4.27;;
20695;SDS011;10507;52.754;13.040;2024-01-07T08:19:02;6.83;;;4.60;;
20695;SDS011;10507;52.754;13.040;2024-01-07T08:21:29;8.20;;;4.97;;
20695;SDS011;10507;52.754;13.040;2024-01-07T08:23:56;8.70;;;5.07;;
20695;SDS011;10507;52.754;13.040;2024-01-07T08:26:23;8.33;;;5.00;;
20695;SDS011;10507;52.754;13.040;2024-01-07T08:28:50;7.40;;;5.10;;
20695;SDS011;10507;52.754;13.040;2024-01-07T08:31:17;7.40;;;4.90;;
20695;SDS011;10507;52.754;13.040;2024-01-07T08:33:44;7.73;;;5.33;;
20695;SDS011;10507;52.754;13.040;2024-01-07T08:36:10;6.37;;;5.07;;
20695;SDS011;10507;52.754;13.040;2024-01-07T08:38:37;8.00;;;4.43;;
20695;SDS011;10507;52.754;13.040;2024-01-07T08:41:04;6.17;;;5.07;;
20695;SDS011;10507;52.754;13.040;2024-01-07T08:43:32;8.30;;;5.20;;
20695;SDS011;10507;52.754;13.040;2024-01-07T08:45:58;7.80;;;4.83;;
20695;SDS011;10507;52.754;13.040;2024-01-07T08:48:25;6.00;;;4.63;;
20695;SDS011;10507;52.754;13.040;2024-01-07T08:50:52;8.10;;;4.27;;
20695;SDS011;10507;52.754;13.040;2024-01-07T08:53:19;7.40;;;4.60;;
20695;SDS011;10507;52.754;13.040;2024-01-07T08:55:47;5.97;;;4.17;;
20695;SDS011;10507;52.754;13.040;2024-01-07T08:58:16;7.40;;;4.67;;
20695;SDS011;10507;52.754;13.040;2024-01-07T09:00:44;7.43;;;5.00;;
20695;SDS011;10507;52.754;13.040;2024-01-07T09:03:11;8.07;;;4.67;;
20695;SDS011;10507;52.754;13.040;2024-01-07T09:05:37;7.07;;;4.80;;
20695;SDS011;10507;52.754;13.040;2024-01-07T09:08:04;6.93;;;4.67;;
20695;SDS011;10507;52.754;13.040;2024-01-07T09:10:32;7.67;;;4.47;;
20695;SDS011;10507;52.754;13.040;2024-01-07T09:12:59;6.90;;;4.37;;
20695;SDS011;10507;52.754;13.040;2024-01-07T09:15:26;7.50;;;4.53;;
20695;SDS011;10507;52.754;13.040;2024-01-07T09:17:54;7.53;;;4.23;;
20695;SDS011;10507;52.754;13.040;2024-01-07T09:20:20;5.83;;;4.20;;
20695;SDS011;10507;52.754;13.040;2024-01-07T09:22:47;6.60;;;4.63;;
20695;SDS011;10507;52.754;13.040;2024-01-07T09:25:14;8.63;;;4.53;;
20695;SDS011;10507;52.754;13.040;2024-01-07T09:27:41;7.47;;;4.23;;
20695;SDS011;10507;52.754;13.040;2024-01-07T09:30:09;12.27;;;5.17;;
20695;SDS011;10507;52.754;13.040;2024-01-07T09:32:39;6.80;;;4.30;;
20695;SDS011;10507;52.754;13.040;2024-01-07T09:35:07;7.23;;;3.97;;
20695;SDS011;10507;52.754;13.040;2024-01-07T09:37:34;5.43;;;4.10;;
20695;SDS011;10507;52.754;13.040;2024-01-07T09:40:01;5.10;;;3.77;;
20695;SDS011;10507;52.754;13.040;2024-01-07T09:42:30;6.83;;;4.40;;
20695;SDS011;10507;52.754;13.040;2024-01-07T09:44:57;7.83;;;4.97;;
20695;SDS011;10507;52.754;13.040;2024-01-07T09:47:28;8.13;;;4.80;;
20695;SDS011;10507;52.754;13.040;2024-01-07T09:49:55;7.70;;;4.50;;
20695;SDS011;10507;52.754;13.040;2024-01-07T09:52:23;6.23;;;4.07;;
20695;SDS011;10507;52.754;13.040;2024-01-07T09:54:51;6.67;;;4.57;;
20695;SDS011;10507;52.754;13.040;2024-01-07T09:57:23;6.77;;;4.30;;
20695;SDS011;10507;52.754;13.040;2024-01-07T09:59:51;6.07;;;3.80;;
20695;SDS011;10507;52.754;13.040;2024-01-07T10:02:18;5.93;;;3.50;;
20695;SDS011;10507;52.754;13.040;2024-01-07T10:04:47;5.73;;;3.63;;
20695;SDS011;10507;52.754;13.040;2024-01-07T10:07:14;4.83;;;3.50;;
20695;SDS011;10507;52.754;13.040;2024-01-07T10:09:43;4.63;;;3.87;;
20695;SDS011;10507;52.754;13.040;2024-01-07T10:12:10;5.93;;;3.57;;
20695;SDS011;10507;52.754;13.040;2024-01-07T10:14:38;6.00;;;3.50;;
20695;SDS011;10507;52.754;13.040;2024-01-07T10:17:13;6.30;;;3.80;;
20695;SDS011;10507;52.754;13.040;2024-01-07T10:19:42;5.30;;;3.70;;
20695;SDS011;10507;52.754;13.040;2024-01-07T10:22:11;6.37;;;3.50;;
20695;SDS011;10507;52.754;13.040;2024-01-07T10:24:39;7.73;;;4.27;;
20695;SDS011;10507;52.754;13.040;2024-01-07T10:27:08;5.30;;;3.70;;
20695;SDS011;10507;52.754;13.040;2024-01-07T10:29:35;5.97;;;3.03;;
20695;SDS011;10507;52.754;13.040;2024-01-07T10:32:03;4.43;;;3.20;;
20695;SDS011;10507;52.754;13.040;2024-01-07T10:34:31;3.97;;;2.97;;
20695;SDS011;10507;52.754;13.040;2024-01-07T10:36:58;4.47;;;3.37;;
20695;SDS011;10507;52.754;13.040;2024-01-07T10:39:26;5.77;;;2.90;;
20695;SDS011;10507;52.754;13.040;2024-01-07T10:41:54;3.40;;;3.00;;
20695;SDS011;10507;52.754;13.040;2024-01-07T10:44:24;5.87;;;3.40;;
20695;SDS011;10507;52.754;13.040;2024-01-07T10:46:52;5.30;;;3.10;;
20695;SDS011;10507;52.754;13.040;2024-01-07T10:49:21;4.37;;;3.03;;
20695;SDS011;10507;52.754;13.040;2024-01-07T10:51:50;6.33;;;3.00;;
20695;SDS011;10507;52.754;13.040;2024-01-07T10:54:28;4.80;;;3.30;;
20695;SDS011;10507;52.754;13.040;2024-01-07T10:56:57;5.00;;;3.27;;
20695;SDS011;10507;52.754;13.040;2024-01-07T10:59:27;6.07;;;3.73;;
20695;SDS011;10507;52.754;13.040;2024-01-07T11:01:55;4.23;;;3.13;;
20695;SDS011;10507;52.754;13.040;2024-01-07T11:04:23;5.07;;;3.17;;
20695;SDS011;10507;52.754;13.040;2024-01-07T11:06:57;6.33;;;4.43;;
20695;SDS011;10507;52.754;13.040;2024-01-07T11:09:31;7.10;;;4.70;;
20695;SDS011;10507;52.754;13.040;2024-01-07T11:12:03;5.20;;;2.87;;
20695;SDS011;10507;52.754;13.040;2024-01-07T11:14:35;5.87;;;3.67;;
20695;SDS011;10507;52.754;13.040;2024-01-07T11:17:05;4.97;;;2.90;;
20695;SDS011;10507;52.754;13.040;2024-01-07T11:19:32;5.43;;;3.63;;
20695;SDS011;10507;52.754;13.040;2024-01-07T11:24:50;5.40;;;3.70;;
20695;SDS011;10507;52.754;13.040;2024-01-07T11:27:17;3.80;;;3.03;;
20695;SDS011;10507;52.754;13.040;2024-01-07T11:29:50;4.90;;;3.10;;
20695;SDS011;10507;52.754;13.040;2024-01-07T11:32:21;6.97;;;5.50;;
20695;SDS011;10507;52.754;13.040;2024-01-07T11:34:48;6.40;;;3.97;;
20695;SDS011;10507;52.754;13.040;2024-01-07T11:37:18;6.50;;;2.87;;
20695;SDS011;10507;52.754;13.040;2024-01-07T11:39:46;6.40;;;3.93;;
20695;SDS011;10507;52.754;13.040;2024-01-07T11:42:13;6.80;;;4.57;;
20695;SDS011;10507;52.754;13.040;2024-01-07T11:44:46;7.33;;;5.23;;
20695;SDS011;10507;52.754;13.040;2024-01-07T11:47:13;6.47;;;3.77;;
20695;SDS011;10507;52.754;13.040;2024-01-07T11:49:40;5.60;;;3.73;;
20695;SDS011;10507;52.754;13.040;2024-01-07T11:52:07;6.50;;;3.93;;
20695;SDS011;10507;52.754;13.040;2024-01-07T11:54:35;11.87;;;5.07;;
20695;SDS011;10507;52.754;13.040;2024-01-07T11:57:02;8.73;;;5.27;;
20695;SDS011;10507;52.754;13.040;2024-01-07T11:59:29;8.20;;;5.30;;
20695;SDS011;10507;52.754;13.040;2024-01-07T12:01:58;6.00;;;3.90;;
20695;SDS011;10507;52.754;13.040;2024-01-07T12:04:26;5.43;;;3.40;;
20695;SDS011;10507;52.754;13.040;2024-01-07T12:06:53;4.80;;;3.63;;
20695;SDS011;10507;52.754;13.040;2024-01-07T12:09:20;6.43;;;3.50;;
20695;SDS011;10507;52.754;13.040;2024-01-07T12:11:46;4.50;;;3.30;;
20695;SDS011;10507;52.754;13.040;2024-01-07T12:14:14;3.47;;;2.67;;
20695;SDS011;10507;52.754;13.040;2024-01-07T12:16:41;3.70;;;2.70;;
20695;SDS011;10507;52.754;13.040;2024-01-07T12:19:09;4.80;;;2.80;;
20695;SDS011;10507;52.754;13.040;2024-01-07T12:21:36;3.67;;;2.27;;
20695;SDS011;10507;52.754;13.040;2024-01-07T12:24:03;4.03;;;2.43;;
20695;SDS011;10507;52.754;13.040;2024-01-07T12:26:30;3.80;;;2.40;;
20695;SDS011;10507;52.754;13.040;2024-01-07T12:28:58;3.40;;;2.20;;
20695;SDS011;10507;52.754;13.040;2024-01-07T12:31:28;4.20;;;2.40;;
20695;SDS011;10507;52.754;13.040;2024-01-07T12:33:56;4.70;;;2.10;;
20695;SDS011;10507;52.754;13.040;2024-01-07T12:36:24;3.80;;;2.23;;
20695;SDS011;10507;52.754;13.040;2024-01-07T12:38:51;2.63;;;2.23;;
20695;SDS011;10507;52.754;13.040;2024-01-07T12:41:19;3.37;;;2.10;;
20695;SDS011;10507;52.754;13.040;2024-01-07T12:43:46;1.97;;;1.70;;
20695;SDS011;10507;52.754;13.040;2024-01-07T12:46:13;2.17;;;1.97;;
20695;SDS011;10507;52.754;13.040;2024-01-07T12:48:39;4.23;;;2.50;;
20695;SDS011;10507;52.754;13.040;2024-01-07T12:51:06;3.17;;;2.30;;
20695;SDS011;10507;52.754;13.040;2024-01-07T12:53:34;5.10;;;3.40;;
20695;SDS011;10507;52.754;13.040;2024-01-07T12:56:02;3.13;;;2.20;;
20695;SDS011;10507;52.754;13.040;2024-01-07T12:58:28;4.17;;;1.83;;
20695;SDS011;10507;52.754;13.040;2024-01-07T13:00:55;2.47;;;2.00;;
20695;SDS011;10507;52.754;13.040;2024-01-07T13:03:22;3.20;;;2.90;;
20695;SDS011;10507;52.754;13.040;2024-01-07T13:05:50;2.30;;;2.10;;
20695;SDS011;10507;52.754;13.040;2024-01-07T13:08:17;2.93;;;2.53;;
20695;SDS011;10507;52.754;13.040;2024-01-07T13:10:48;3.27;;;2.20;;
20695;SDS011;10507;52.754;13.040;2024-01-07T13:13:15;3.83;;;2.10;;
20695;SDS011;10507;52.754;13.040;2024-01-07T13:15:42;3.53;;;2.17;;
20695;SDS011;10507;52.754;13.040;2024-01-07T13:18:10;3.70;;;2.37;;
20695;SDS011;10507;52.754;13.040;2024-01-07T13:20:38;2.77;;;2.20;;
20695;SDS011;10507;52.754;13.040;2024-01-07T13:23:05;3.43;;;2.27;;
20695;SDS011;10507;52.754;13.040;2024-01-07T13:25:31;2.57;;;2.27;;
20695;SDS011;10507;52.754;13.040;2024-01-07T13:27:59;3.10;;;2.63;;
20695;SDS011;10507;52.754;13.040;2024-01-07T13:30:26;2.83;;;2.30;;
20695;SDS011;10507;52.754;13.040;2024-01-07T13:32:52;4.13;;;2.47;;
20695;SDS011;10507;52.754;13.040;2024-01-07T13:35:21;2.70;;;2.37;;
20695;SDS011;10507;52.754;13.040;2024-01-07T13:37:49;3.20;;;2.40;;
20695;SDS011;10507;52.754;13.040;2024-01-07T13:40:17;2.97;;;2.10;;
20695;SDS011;10507;52.754;13.040;2024-01-07T13:42:44;2.60;;;2.30;;
20695;SDS011;10507;52.754;13.040;2024-01-07T13:45:12;4.53;;;2.27;;
20695;SDS011;10507;52.754;13.040;2024-01-07T13:47:39;2.73;;;2.20;;
20695;SDS011;10507;52.754;13.040;2024-01-07T13:50:06;3.60;;;2.67;;
20695;SDS011;10507;52.754;13.040;2024-01-07T13:52:35;2.63;;;2.30;;
20695;SDS011;10507;52.754;13.040;2024-01-07T13:55:01;3.77;;;2.10;;
20695;SDS011;10507;52.754;13.040;2024-01-07T13:57:29;2.93;;;2.27;;
20695;SDS011;10507;52.754;13.040;2024-01-07T13:59:56;2.30;;;2.10;;
20695;SDS011;10507;52.754;13.040;2024-01-07T14:02:24;3.17;;;2.33;;
20695;SDS011;10507;52.754;13.040;2024-01-07T14:04:50;3.63;;;2.43;;
20695;SDS011;10507;52.754;13.040;2024-01-07T14:07:17;3.53;;;2.27;;
20695;SDS011;10507;52.754;13.040;2024-01-07T14:09:44;6.27;;;3.20;;
20695;SDS011;10507;52.754;13.040;2024-01-07T14:12:11;2.97;;;2.33;;
20695;SDS011;10507;52.754;13.040;2024-01-07T14:14:37;3.63;;;2.80;;
20695;SDS011;10507;52.754;13.040;2024-01-07T14:17:05;3.30;;;2.43;;
20695;SDS011;10507;52.754;13.040;2024-01-07T14:19:33;3.90;;;2.40;;
20695;SDS011;10507;52.754;13.040;2024-01-07T14:21:59;2.87;;;2.47;;
20695;SDS011;10507;52.754;13.040;2024-01-07T14:24:27;2.60;;;2.10;;
20695;SDS011;10507;52.754;13.040;2024-01-07T14:26:53;3.97;;;2.50;;
20695;SDS011;10507;52.754;13.040;2024-01-07T14:29:20;3.83;;;2.63;;
20695;SDS011;10507;52.754;13.040;2024-01-07T14:31:46;2.80;;;2.10;;
20695;SDS011;10507;52.754;13.040;2024-01-07T14:34:13;3.70;;;2.63;;
20695;SDS011;10507;52.754;13.040;2024-01-07T14:36:42;4.90;;;3.07;;